Time;durP1;ratioP1;P1;durP2;ratioP2;P2;SDS_P1;SDS_P2;PMS_P1;PMS_P2;Temp;Humidity;BMP_temperature;BMP_pressure;BME280_temperature;BME280_humidity;BME280_pressure;Samples;Min_cycle;Max_cycle;Signal;HPM_P1;HPM_P2
2022/04/06 00:01:22;;;;;;;;;;;8.50;99.90;;;;;;5110604;28;19938;-77
2022/04/06 00:03:48;;;;;;;;;;;8.50;99.90;;;;;;5092654;28;20005;-76
2022/04/06 00:06:13;;;;;;;;;;;8.50;99.90;;;;;;5110147;28;19924;-76
2022/04/06 00:08:39;;;;;;;;;;;8.40;99.90;;;;;;5110336;28;20014;-77
2022/04/06 00:11:04;;;;;;;;;;;8.40;99.90;;;;;;5110658;28;19924;-77
2022/04/06 00:13:30;;;;;;;;;;;8.40;99.90;;;;;;5110205;28;19928;-76
2022/04/06 00:15:56;;;;;;;;;;;8.40;99.90;;;;;;5109812;28;19937;-76
2022/04/06 00:18:21;;;;;;;;;;;8.40;99.90;;;;;;5109267;28;19923;-76
2022/04/06 00:20:47;;;;;;;;;;;8.40;99.90;;;;;;5108856;28;20015;-76
2022/04/06 00:23:12;;;;;;;;;;;8.40;99.90;;;;;;5108910;28;19996;-76
2022/04/06 00:25:38;;;;;;;;;;;8.40;99.90;;;;;;5110239;28;19928;-76
2022/04/06 00:28:03;;;;;;;;;;;8.40;99.90;;;;;;5110171;28;19927;-76
2022/04/06 00:30:29;;;;;;;;;;;8.30;99.90;;;;;;5108808;28;20023;-76
2022/04/06 00:32:54;;;;;;;;;;;8.30;99.90;;;;;;5108901;28;19975;-76
2022/04/06 00:35:29;;;;;;;;;;;8.30;99.90;;;;;;5110222;27;19946;-76
2022/04/06 00:38:05;;;;;;;;;;;8.30;99.90;;;;;;5110100;28;19932;-76
2022/04/06 00:40:32;;;;;;;;;;;8.30;99.90;;;;;;5110257;28;19932;-76
2022/04/06 00:42:58;;;;;;;;;;;8.30;99.90;;;;;;5108288;28;19931;-76
2022/04/06 00:45:24;;;;;;;;;;;8.30;99.90;;;;;;5108729;28;19929;-76
2022/04/06 00:47:50;;;;;;;;;;;8.30;99.90;;;;;;5092993;28;19931;-76
2022/04/06 00:50:17;;;;;;;;;;;8.40;99.90;;;;;;5114100;28;19928;-76
2022/04/06 00:52:42;;;;;;;;;;;8.30;99.90;;;;;;5112489;28;19924;-77
2022/04/06 00:55:08;;;;;;;;;;;8.30;99.90;;;;;;5114181;28;19923;-76
2022/04/06 00:57:34;;;;;;;;;;;8.30;99.90;;;;;;5114165;28;19924;-76
2022/04/06 01:00:00;;;;;;;;;;;8.40;99.90;;;;;;5112966;28;19930;-76
2022/04/06 01:02:25;;;;;;;;;;;8.30;99.90;;;;;;5112657;28;19923;-76
2022/04/06 01:04:51;;;;;;;;;;;8.30;99.90;;;;;;5112930;28;19989;-76
2022/04/06 01:07:18;;;;;;;;;;;8.30;99.90;;;;;;5112508;28;20713;-76
2022/04/06 01:09:43;;;;;;;;;;;8.30;99.90;;;;;;5112586;28;20757;-76
2022/04/06 01:12:09;;;;;;;;;;;8.30;99.90;;;;;;5113944;28;19939;-76
2022/04/06 01:14:35;;;;;;;;;;;8.30;99.90;;;;;;5112476;28;19948;-76
2022/04/06 01:17:07;;;;;;;;;;;8.30;99.90;;;;;;5113168;28;20331;-76
2022/04/06 01:19:47;;;;;;;;;;;8.30;99.90;;;;;;5112072;28;19928;-76
2022/04/06 01:22:17;;;;;;;;;;;8.30;99.90;;;;;;5112283;28;19924;-76
2022/04/06 01:24:43;;;;;;;;;;;8.30;99.90;;;;;;5094816;28;19923;-76
2022/04/06 01:27:09;;;;;;;;;;;8.30;99.90;;;;;;5111891;28;19925;-76
2022/04/06 01:29:35;;;;;;;;;;;8.30;99.90;;;;;;5111792;28;20462;-76
2022/04/06 01:32:13;;;;;;;;;;;8.30;99.90;;;;;;5113285;28;19950;-76
2022/04/06 01:34:42;;;;;;;;;;;8.30;99.90;;;;;;5113182;28;19928;-76
2022/04/06 01:37:08;;;;;;;;;;;8.30;99.90;;;;;;5111671;28;19928;-76
2022/04/06 01:39:34;;;;;;;;;;;8.30;99.90;;;;;;5111941;28;19924;-76
2022/04/06 01:42:01;;;;;;;;;;;8.30;99.90;;;;;;5111699;28;19950;-76
2022/04/06 01:44:27;;;;;;;;;;;8.30;99.90;;;;;;5111833;28;19950;-76
2022/04/06 01:46:53;;;;;;;;;;;8.30;99.90;;;;;;5113108;28;20420;-76
2022/04/06 01:52:12;;;;;;;;;;;8.30;99.90;;;;;;5111600;28;19931;-76
2022/04/06 01:54:38;;;;;;;;;;;8.30;99.90;;;;;;5111989;28;19928;-76
2022/04/06 01:57:03;;;;;;;;;;;8.30;99.90;;;;;;5113001;28;19932;-76
2022/04/06 01:59:29;;;;;;;;;;;8.40;99.90;;;;;;5111092;28;19931;-76
2022/04/06 02:01:55;;;;;;;;;;;8.30;99.90;;;;;;5111639;28;19924;-76
2022/04/06 02:04:20;;;;;;;;;;;8.40;99.90;;;;;;5112726;28;19963;-77
2022/04/06 02:06:46;;;;;;;;;;;8.30;99.90;;;;;;5112427;28;19928;-76
2022/04/06 02:09:13;;;;;;;;;;;8.30;99.90;;;;;;5111472;28;20510;-76
2022/04/06 02:11:39;;;;;;;;;;;8.30;99.90;;;;;;5113050;28;20015;-76
2022/04/06 02:14:05;;;;;;;;;;;8.30;99.90;;;;;;5112378;28;20014;-77
2022/04/06 02:16:30;;;;;;;;;;;8.40;99.90;;;;;;5112527;28;19923;-76
2022/04/06 02:18:56;;;;;;;;;;;8.30;99.90;;;;;;5112669;28;19923;-76
2022/04/06 02:21:22;;;;;;;;;;;8.30;99.90;;;;;;5112201;28;19928;-77
2022/04/06 02:23:47;;;;;;;;;;;8.30;99.90;;;;;;5112471;28;20400;-77
2022/04/06 02:26:13;;;;;;;;;;;8.30;99.90;;;;;;5111518;28;19930;-76
2022/04/06 02:28:38;;;;;;;;;;;8.40;99.90;;;;;;5110739;28;19924;-76
2022/04/06 02:31:04;;;;;;;;;;;8.40;99.90;;;;;;5110902;28;19928;-77
2022/04/06 02:33:29;;;;;;;;;;;8.40;99.90;;;;;;5111211;28;20718;-77
2022/04/06 02:35:55;;;;;;;;;;;8.40;99.90;;;;;;5110999;28;19928;-77
2022/04/06 02:38:20;;;;;;;;;;;8.40;99.90;;;;;;5111892;28;19924;-77
2022/04/06 02:40:46;;;;;;;;;;;8.40;99.90;;;;;;5110408;28;20355;-76
2022/04/06 02:43:12;;;;;;;;;;;8.40;99.90;;;;;;5110916;28;19924;-76
2022/04/06 02:45:38;;;;;;;;;;;8.40;99.90;;;;;;5111149;28;19986;-76
2022/04/06 02:48:03;;;;;;;;;;;8.40;99.90;;;;;;5103859;28;19986;-76
2022/04/06 02:50:29;;;;;;;;;;;8.40;99.90;;;;;;5088873;28;19924;-77
2022/04/06 02:52:54;;;;;;;;;;;8.40;99.90;;;;;;5099704;28;19966;-77
2022/04/06 02:55:20;;;;;;;;;;;8.40;99.90;;;;;;5109953;28;20064;-76
2022/04/06 02:57:45;;;;;;;;;;;8.40;99.90;;;;;;5110424;28;19923;-76
2022/04/06 03:00:12;;;;;;;;;;;8.40;99.90;;;;;;5111726;28;19930;-76
2022/04/06 03:02:38;;;;;;;;;;;8.50;99.90;;;;;;5090196;28;19928;-76
2022/04/06 03:05:03;;;;;;;;;;;8.50;99.90;;;;;;5090158;28;20576;-77
2022/04/06 03:07:29;;;;;;;;;;;8.50;99.90;;;;;;5089968;28;19924;-77
2022/04/06 03:09:54;;;;;;;;;;;8.50;99.90;;;;;;5089978;28;19924;-76
2022/04/06 03:12:20;;;;;;;;;;;8.50;99.90;;;;;;5089712;28;19924;-76
2022/04/06 03:14:45;;;;;;;;;;;8.50;99.90;;;;;;5090989;28;19977;-77
2022/04/06 03:17:15;;;;;;;;;;;8.40;99.90;;;;;;5090581;28;19927;-77
2022/04/06 03:19:41;;;;;;;;;;;8.50;99.90;;;;;;5109739;28;20003;-76
2022/04/06 03:22:07;;;;;;;;;;;8.50;99.90;;;;;;5110496;28;20038;-76
2022/04/06 03:24:32;;;;;;;;;;;8.50;99.90;;;;;;5109870;28;19934;-76
2022/04/06 03:26:58;;;;;;;;;;;8.50;99.90;;;;;;5110075;28;19923;-76
2022/04/06 03:29:23;;;;;;;;;;;8.50;99.90;;;;;;5109714;28;19924;-76
2022/04/06 03:31:49;;;;;;;;;;;8.50;99.90;;;;;;5111319;28;20007;-76
2022/04/06 03:34:14;;;;;;;;;;;8.50;99.90;;;;;;5109721;28;19923;-77
2022/04/06 03:36:40;;;;;;;;;;;8.50;99.90;;;;;;5110569;28;19927;-76
2022/04/06 03:39:05;;;;;;;;;;;8.50;99.90;;;;;;5109845;28;20376;-76
2022/04/06 03:41:31;;;;;;;;;;;8.50;99.90;;;;;;5109786;28;20382;-76
2022/04/06 03:43:56;;;;;;;;;;;8.40;99.90;;;;;;5109713;28;19930;-76
2022/04/06 03:46:22;;;;;;;;;;;8.50;99.90;;;;;;5109095;28;19930;-77
2022/04/06 03:48:47;;;;;;;;;;;8.40;99.90;;;;;;5109716;28;19947;-77
2022/04/06 03:51:12;;;;;;;;;;;8.50;99.90;;;;;;5109676;28;19924;-77
2022/04/06 03:53:38;;;;;;;;;;;8.40;99.90;;;;;;5090677;28;19924;-77
2022/04/06 03:56:04;;;;;;;;;;;8.50;99.90;;;;;;5089123;28;20360;-77
2022/04/06 03:58:30;;;;;;;;;;;8.40;99.90;;;;;;5088870;28;19942;-77
2022/04/06 04:00:55;;;;;;;;;;;8.40;99.90;;;;;;5090600;28;19924;-77
2022/04/06 04:03:21;;;;;;;;;;;8.40;99.90;;;;;;5071976;28;20446;-77
2022/04/06 04:05:46;;;;;;;;;;;8.40;99.90;;;;;;5089030;28;19977;-76
2022/04/06 04:08:12;;;;;;;;;;;8.40;99.90;;;;;;5089689;28;19932;-77
2022/04/06 04:10:37;;;;;;;;;;;8.40;99.90;;;;;;5071751;28;20362;-77
2022/04/06 04:13:03;;;;;;;;;;;8.40;99.90;;;;;;5088964;28;19931;-77
2022/04/06 04:15:30;;;;;;;;;;;8.40;99.90;;;;;;5071743;28;19967;-76
2022/04/06 04:17:56;;;;;;;;;;;8.40;99.90;;;;;;5088210;28;19924;-77
2022/04/06 04:20:21;;;;;;;;;;;8.40;99.90;;;;;;5090004;28;19931;-76
2022/04/06 04:22:47;;;;;;;;;;;8.30;99.90;;;;;;5071147;28;19947;-76
2022/04/06 04:25:13;;;;;;;;;;;8.40;99.90;;;;;;5089546;28;19977;-77
2022/04/06 04:27:39;;;;;;;;;;;8.30;99.90;;;;;;5088473;28;20011;-76
2022/04/06 04:30:05;;;;;;;;;;;8.30;99.90;;;;;;5088418;28;19924;-77
2022/04/06 04:32:31;;;;;;;;;;;8.30;99.90;;;;;;5071565;28;19955;-77
2022/04/06 04:34:56;;;;;;;;;;;8.30;99.90;;;;;;5088161;28;20319;-77
2022/04/06 04:37:22;;;;;;;;;;;8.30;99.90;;;;;;5089519;28;19968;-77
2022/04/06 04:39:47;;;;;;;;;;;8.30;99.90;;;;;;5088023;28;19979;-77
2022/04/06 04:42:13;;;;;;;;;;;8.30;99.90;;;;;;5088200;28;20360;-77
2022/04/06 04:44:38;;;;;;;;;;;8.30;99.90;;;;;;5089449;28;20218;-77
2022/04/06 04:47:07;;;;;;;;;;;8.30;99.90;;;;;;5088657;28;20061;-76
2022/04/06 04:49:32;;;;;;;;;;;8.30;99.90;;;;;;5087675;28;20002;-76
2022/04/06 04:51:58;;;;;;;;;;;8.30;99.90;;;;;;5086914;28;19974;-77
2022/04/06 04:54:24;;;;;;;;;;;8.30;99.90;;;;;;5071217;28;20295;-77
2022/04/06 04:56:51;;;;;;;;;;;8.30;99.90;;;;;;5070728;28;20405;-76
2022/04/06 04:59:16;;;;;;;;;;;8.30;99.90;;;;;;5071396;28;20394;-76
2022/04/06 05:01:42;;;;;;;;;;;8.30;99.90;;;;;;5070910;28;20010;-76
2022/04/06 05:04:07;;;;;;;;;;;8.30;99.90;;;;;;5071258;28;19943;-77
2022/04/06 05:06:33;;;;;;;;;;;8.40;99.90;;;;;;5086984;28;20310;-77
2022/04/06 05:08:58;;;;;;;;;;;8.30;99.90;;;;;;5109362;28;19978;-76
2022/04/06 05:11:24;;;;;;;;;;;8.40;99.90;;;;;;5108533;28;20061;-78
2022/04/06 05:13:49;;;;;;;;;;;8.40;99.90;;;;;;5109059;28;19935;-76
2022/04/06 05:16:14;;;;;;;;;;;8.40;99.90;;;;;;5107844;28;19931;-76
2022/04/06 05:18:40;;;;;;;;;;;8.40;99.90;;;;;;5109748;28;19924;-77
2022/04/06 05:21:07;;;;;;;;;;;8.40;99.90;;;;;;5108581;28;20401;-77
2022/04/06 05:23:33;;;;;;;;;;;8.50;99.90;;;;;;5107553;28;20049;-77
2022/04/06 05:25:58;;;;;;;;;;;8.40;99.90;;;;;;5107910;28;20441;-77
2022/04/06 05:28:24;;;;;;;;;;;8.50;99.90;;;;;;5107847;28;19924;-77
2022/04/06 05:30:50;;;;;;;;;;;8.50;99.90;;;;;;5107636;28;20286;-77
2022/04/06 05:33:15;;;;;;;;;;;8.50;99.90;;;;;;5107746;28;20034;-77
2022/04/06 05:35:41;;;;;;;;;;;8.50;99.90;;;;;;5110735;28;20461;-77
2022/04/06 05:38:06;;;;;;;;;;;8.50;99.90;;;;;;5111250;28;19934;-77
2022/04/06 05:40:32;;;;;;;;;;;8.40;99.90;;;;;;5111933;28;20330;-77
2022/04/06 05:42:57;;;;;;;;;;;8.40;99.90;;;;;;5111420;28;19923;-77
2022/04/06 05:45:23;;;;;;;;;;;8.50;99.90;;;;;;5111595;28;19924;-77
2022/04/06 05:47:50;;;;;;;;;;;8.40;99.90;;;;;;5113255;28;19924;-77
2022/04/06 05:50:15;;;;;;;;;;;8.40;99.90;;;;;;5110689;28;19930;-77
2022/04/06 05:52:41;;;;;;;;;;;8.40;99.90;;;;;;5099868;28;19928;-76
2022/04/06 05:55:07;;;;;;;;;;;8.40;99.90;;;;;;5112928;27;19928;-75
2022/04/06 05:57:33;;;;;;;;;;;8.40;99.90;;;;;;5109757;28;20736;-76
2022/04/06 05:59:58;;;;;;;;;;;8.30;99.90;;;;;;5111421;28;20036;-76
2022/04/06 06:02:24;;;;;;;;;;;8.30;99.90;;;;;;5111069;28;19924;-76
2022/04/06 06:04:53;;;;;;;;;;;8.30;99.90;;;;;;5111301;28;19924;-77
2022/04/06 06:07:20;;;;;;;;;;;8.30;99.90;;;;;;5112124;28;19968;-76
2022/04/06 06:09:46;;;;;;;;;;;8.30;99.90;;;;;;5112373;28;19928;-76
2022/04/06 06:12:11;;;;;;;;;;;8.20;99.90;;;;;;5110954;28;20621;-76
2022/04/06 06:14:37;;;;;;;;;;;8.20;99.90;;;;;;5094078;28;19924;-77
2022/04/06 06:17:03;;;;;;;;;;;8.20;99.90;;;;;;5111251;28;19924;-77
2022/04/06 06:19:28;;;;;;;;;;;8.20;99.90;;;;;;5112431;28;19924;-77
2022/04/06 06:21:54;;;;;;;;;;;8.20;99.90;;;;;;5110667;28;20011;-77
2022/04/06 06:24:21;;;;;;;;;;;8.20;99.90;;;;;;5110927;28;19924;-76
2022/04/06 06:26:46;;;;;;;;;;;8.20;99.90;;;;;;5094445;28;20306;-77
2022/04/06 06:29:12;;;;;;;;;;;8.20;99.90;;;;;;5110775;28;19928;-77
2022/04/06 06:31:38;;;;;;;;;;;8.20;99.90;;;;;;5094194;28;20318;-76
2022/04/06 06:34:03;;;;;;;;;;;8.20;99.90;;;;;;5112240;28;20035;-76
2022/04/06 06:36:29;;;;;;;;;;;8.20;99.90;;;;;;5094176;28;19924;-77
2022/04/06 06:38:55;;;;;;;;;;;8.20;99.90;;;;;;5110722;28;19935;-76
2022/04/06 06:41:21;;;;;;;;;;;8.10;99.90;;;;;;5110723;28;20279;-76
2022/04/06 06:43:48;;;;;;;;;;;8.10;99.90;;;;;;5110978;28;19924;-76
2022/04/06 06:46:14;;;;;;;;;;;8.20;99.90;;;;;;5110523;28;19935;-76
2022/04/06 06:48:40;;;;;;;;;;;8.20;99.90;;;;;;5111268;28;20548;-76
2022/04/06 06:51:05;;;;;;;;;;;8.20;99.90;;;;;;5110419;28;19931;-76
2022/04/06 06:53:31;;;;;;;;;;;8.20;99.90;;;;;;5075690;28;19975;-76
2022/04/06 06:55:56;;;;;;;;;;;8.20;99.90;;;;;;5091283;28;19924;-76
2022/04/06 06:58:22;;;;;;;;;;;8.20;99.90;;;;;;5089815;28;19974;-76
2022/04/06 07:00:47;;;;;;;;;;;8.20;99.90;;;;;;5091120;28;19924;-76
2022/04/06 07:03:13;;;;;;;;;;;8.20;99.90;;;;;;5091046;28;19928;-76
2022/04/06 07:05:38;;;;;;;;;;;8.20;99.90;;;;;;5091803;28;19932;-76
2022/04/06 07:08:04;;;;;;;;;;;8.20;99.90;;;;;;5111409;28;19941;-76
2022/04/06 07:10:30;;;;;;;;;;;8.20;99.90;;;;;;5092991;28;20697;-77
2022/04/06 07:12:55;;;;;;;;;;;8.20;99.90;;;;;;5092409;28;19924;-76
2022/04/06 07:15:21;;;;;;;;;;;8.20;99.90;;;;;;5075925;28;19924;-76
2022/04/06 07:18:07;;;;;;;;;;;8.20;99.90;;;;;;5093435;28;20379;-76
2022/04/06 07:20:35;;;;;;;;;;;8.10;99.90;;;;;;5110656;28;20014;-76
2022/04/06 07:23:04;;;;;;;;;;;8.20;99.90;;;;;;5111234;28;19924;-76
2022/04/06 07:25:30;;;;;;;;;;;8.10;99.90;;;;;;5092384;28;19979;-76
2022/04/06 07:27:55;;;;;;;;;;;8.10;99.90;;;;;;5092452;28;19990;-76
2022/04/06 07:30:21;;;;;;;;;;;8.20;99.90;;;;;;5092744;28;19949;-76
2022/04/06 07:32:46;;;;;;;;;;;8.20;99.90;;;;;;5075888;28;19924;-77
2022/04/06 07:35:12;;;;;;;;;;;8.10;99.90;;;;;;5092134;28;19934;-77
2022/04/06 07:37:41;;;;;;;;;;;8.10;99.90;;;;;;5092853;28;19927;-77
2022/04/06 07:40:08;;;;;;;;;;;8.20;99.90;;;;;;5076199;28;20290;-77
2022/04/06 07:42:35;;;;;;;;;;;8.20;99.90;;;;;;5110449;28;19928;-77
2022/04/06 07:45:04;;;;;;;;;;;8.20;99.90;;;;;;5092409;28;19930;-77
2022/04/06 07:47:34;;;;;;;;;;;8.20;99.90;;;;;;5092631;28;19924;-77
2022/04/06 07:50:01;;;;;;;;;;;8.20;99.90;;;;;;5091813;28;19924;-77
2022/04/06 07:52:26;;;;;;;;;;;8.20;99.90;;;;;;5092185;28;20005;-76
2022/04/06 07:54:52;;;;;;;;;;;8.20;99.90;;;;;;5092468;28;20402;-77
2022/04/06 07:57:22;;;;;;;;;;;8.20;99.90;;;;;;5091393;28;19959;-76
2022/04/06 07:59:48;;;;;;;;;;;8.20;99.90;;;;;;5091010;28;19923;-76
2022/04/06 08:02:14;;;;;;;;;;;8.20;99.90;;;;;;5092338;28;19930;-76
2022/04/06 08:04:39;;;;;;;;;;;8.20;99.90;;;;;;5092295;28;20326;-76
2022/04/06 08:07:05;;;;;;;;;;;8.20;99.90;;;;;;5110271;28;19949;-76
2022/04/06 08:09:30;;;;;;;;;;;8.20;99.90;;;;;;5108759;28;19932;-76
2022/04/06 08:11:56;;;;;;;;;;;8.20;99.90;;;;;;5108823;28;19976;-76
2022/04/06 08:14:21;;;;;;;;;;;8.20;99.90;;;;;;5109402;28;20057;-76
2022/04/06 08:16:47;;;;;;;;;;;8.30;99.90;;;;;;5110110;28;20409;-76
2022/04/06 08:19:13;;;;;;;;;;;8.20;99.90;;;;;;5109830;28;19928;-76
2022/04/06 08:21:48;;;;;;;;;;;8.20;99.90;;;;;;5108984;28;20291;-76
2022/04/06 08:24:14;;;;;;;;;;;8.30;99.90;;;;;;5108984;28;20014;-76
2022/04/06 08:26:58;;;;;;;;;;;8.20;99.90;;;;;;5110018;28;19962;-77
2022/04/06 08:29:24;;;;;;;;;;;8.20;99.90;;;;;;5109722;28;20392;-76
2022/04/06 08:32:01;;;;;;;;;;;8.20;99.90;;;;;;5110183;28;20007;-76
2022/04/06 08:34:31;;;;;;;;;;;8.30;99.90;;;;;;5110167;28;20050;-76
2022/04/06 08:36:56;;;;;;;;;;;8.30;99.90;;;;;;5110101;28;19928;-76
2022/04/06 08:39:58;;;;;;;;;;;8.30;99.90;;;;;;5110133;28;19965;-77
2022/04/06 08:42:40;;;;;;;;;;;8.30;99.90;;;;;;5103853;28;20384;-76
2022/04/06 08:45:19;;;;;;;;;;;8.30;99.90;;;;;;5109282;28;20330;-76
2022/04/06 08:47:46;;;;;;;;;;;8.30;99.90;;;;;;5109205;28;19950;-76
2022/04/06 08:50:12;;;;;;;;;;;8.40;99.90;;;;;;5108578;28;19923;-76
2022/04/06 08:52:38;;;;;;;;;;;8.40;99.90;;;;;;5109391;28;19924;-76
2022/04/06 08:55:04;;;;;;;;;;;8.40;99.90;;;;;;5108654;28;19967;-77
2022/04/06 08:57:32;;;;;;;;;;;8.50;99.90;;;;;;5109862;28;20416;-77
2022/04/06 08:59:58;;;;;;;;;;;8.50;99.90;;;;;;5108378;28;19928;-76
2022/04/06 09:02:27;;;;;;;;;;;8.40;99.90;;;;;;5108256;28;19931;-76
2022/04/06 09:04:54;;;;;;;;;;;8.40;99.90;;;;;;5091564;28;19928;-76
2022/04/06 09:07:24;;;;;;;;;;;8.40;99.90;;;;;;5109578;28;19967;-76
2022/04/06 09:09:50;;;;;;;;;;;8.40;99.90;;;;;;5111151;28;19949;-76
2022/04/06 09:12:17;;;;;;;;;;;8.50;99.90;;;;;;5111902;28;19984;-76
2022/04/06 09:14:43;;;;;;;;;;;8.50;99.90;;;;;;5113169;28;20227;-76
2022/04/06 09:17:09;;;;;;;;;;;8.60;99.90;;;;;;5113576;28;20404;-76
2022/04/06 09:19:38;;;;;;;;;;;8.70;99.90;;;;;;5113447;28;19934;-76
2022/04/06 09:22:07;;;;;;;;;;;8.70;99.90;;;;;;5113155;28;20473;-76
2022/04/06 09:24:37;;;;;;;;;;;8.80;99.90;;;;;;5113275;28;19927;-76
2022/04/06 09:27:04;;;;;;;;;;;8.80;99.90;;;;;;5113895;28;19946;-76
2022/04/06 09:29:31;;;;;;;;;;;8.80;99.90;;;;;;5113615;28;19923;-76
2022/04/06 09:32:15;;;;;;;;;;;8.80;99.90;;;;;;5113553;28;19923;-76
2022/04/06 09:34:42;;;;;;;;;;;8.80;99.90;;;;;;5113289;28;20446;-76
2022/04/06 09:37:21;;;;;;;;;;;8.90;99.90;;;;;;5112889;28;19923;-76
2022/04/06 09:39:47;;;;;;;;;;;8.90;99.90;;;;;;5113325;27;19924;-76
2022/04/06 09:42:27;;;;;;;;;;;8.90;99.90;;;;;;5112065;28;20434;-76
2022/04/06 09:47:41;;;;;;;;;;;9.10;99.90;;;;;;5113012;28;19977;-76
2022/04/06 09:50:09;;;;;;;;;;;9.30;99.90;;;;;;5111964;28;20010;-77
2022/04/06 09:52:36;;;;;;;;;;;9.30;99.90;;;;;;5111944;28;20346;-77
2022/04/06 09:55:05;;;;;;;;;;;9.50;99.90;;;;;;5111892;28;19930;-77
2022/04/06 09:57:34;;;;;;;;;;;9.50;99.90;;;;;;5111622;28;20309;-74
2022/04/06 09:59:59;;;;;;;;;;;9.50;99.90;;;;;;5113985;28;19924;-77
2022/04/06 10:02:25;;;;;;;;;;;9.60;99.90;;;;;;5112309;28;20098;-76
2022/04/06 10:04:52;;;;;;;;;;;9.60;99.90;;;;;;5112819;28;19969;-77
2022/04/06 10:07:19;;;;;;;;;;;9.60;99.90;;;;;;5112500;28;19924;-77
2022/04/06 10:09:45;;;;;;;;;;;9.70;99.90;;;;;;5111462;28;20378;-77
2022/04/06 10:12:11;;;;;;;;;;;9.70;99.90;;;;;;5112379;28;19930;-77
2022/04/06 10:14:37;;;;;;;;;;;9.70;99.90;;;;;;5112142;28;19928;-77
2022/04/06 10:17:03;;;;;;;;;;;9.70;99.90;;;;;;5112549;28;19924;-77
2022/04/06 10:19:33;;;;;;;;;;;9.70;99.90;;;;;;5112381;28;19924;-77
2022/04/06 10:22:06;;;;;;;;;;;9.70;99.90;;;;;;5111417;28;19931;-77
2022/04/06 10:24:43;;;;;;;;;;;9.70;99.90;;;;;;5111884;28;20011;-76
2022/04/06 10:27:12;;;;;;;;;;;9.70;99.90;;;;;;5112212;28;19931;-77
2022/04/06 10:29:56;;;;;;;;;;;9.70;99.90;;;;;;5111791;28;19933;-77
2022/04/06 10:32:37;;;;;;;;;;;9.70;99.90;;;;;;5111017;28;20358;-77
2022/04/06 10:35:22;;;;;;;;;;;9.70;99.90;;;;;;5111035;28;19982;-77
2022/04/06 10:37:52;;;;;;;;;;;9.70;99.90;;;;;;5110294;28;19924;-77
2022/04/06 10:40:17;;;;;;;;;;;9.70;99.90;;;;;;5111838;28;20390;-77
2022/04/06 10:42:45;;;;;;;;;;;9.70;99.90;;;;;;5110690;28;19931;-77
2022/04/06 10:45:27;;;;;;;;;;;9.70;99.90;;;;;;5112153;28;20374;-77
2022/04/06 10:48:11;;;;;;;;;;;9.70;99.90;;;;;;5111148;28;19928;-77
2022/04/06 10:50:37;;;;;;;;;;;9.70;99.90;;;;;;5109839;28;20270;-77
2022/04/06 10:53:18;;;;;;;;;;;9.70;99.90;;;;;;5096965;28;19924;-77
2022/04/06 10:55:55;;;;;;;;;;;9.80;99.90;;;;;;5090237;28;19931;-77
2022/04/06 10:58:23;;;;;;;;;;;9.80;99.90;;;;;;5090247;28;19924;-77
2022/04/06 11:01:16;;;;;;;;;;;9.80;99.90;;;;;;5090101;28;19969;-77
2022/04/06 11:03:44;;;;;;;;;;;9.90;99.90;;;;;;5086851;28;20394;-77
2022/04/06 11:06:10;;;;;;;;;;;9.90;99.90;;;;;;5089811;28;19931;-77
2022/04/06 11:11:37;;;;;;;;;;;9.80;99.90;;;;;;5090902;28;19924;-75
2022/04/06 11:14:03;;;;;;;;;;;9.80;99.90;;;;;;5089816;28;20014;-77
2022/04/06 11:16:41;;;;;;;;;;;9.70;99.90;;;;;;5091400;28;20364;-76
2022/04/06 11:19:07;;;;;;;;;;;9.70;99.90;;;;;;5089927;28;19924;-76
2022/04/06 11:21:33;;;;;;;;;;;9.70;99.90;;;;;;5090779;28;19970;-76
2022/04/06 11:23:58;;;;;;;;;;;9.70;99.90;;;;;;5089763;28;19931;-77
2022/04/06 11:26:25;;;;;;;;;;;9.70;99.90;;;;;;5090809;28;19924;-75
2022/04/06 11:28:58;;;;;;;;;;;9.70;99.90;;;;;;5090875;28;19923;-77
2022/04/06 11:31:23;;;;;;;;;;;9.80;99.90;;;;;;5088683;28;19924;-76
2022/04/06 11:33:49;;;;;;;;;;;9.90;99.90;;;;;;5088986;28;20344;-76
2022/04/06 11:36:16;;;;;;;;;;;9.90;99.90;;;;;;5089483;28;20336;-77
2022/04/06 11:38:41;;;;;;;;;;;9.90;99.90;;;;;;5090700;28;19924;-76
2022/04/06 11:41:07;;;;;;;;;;;9.80;99.90;;;;;;5089774;28;19973;-76
2022/04/06 11:43:36;;;;;;;;;;;9.80;99.90;;;;;;5088898;28;20390;-76
2022/04/06 11:46:01;;;;;;;;;;;9.80;99.90;;;;;;5090812;28;19924;-76
2022/04/06 11:48:37;;;;;;;;;;;9.80;99.90;;;;;;5088784;28;20023;-76
2022/04/06 11:51:03;;;;;;;;;;;9.80;99.90;;;;;;5072225;28;20390;-76
2022/04/06 11:53:29;;;;;;;;;;;9.80;99.90;;;;;;5075419;28;19930;-76
2022/04/06 11:55:55;;;;;;;;;;;9.90;99.90;;;;;;5089809;28;20402;-76
2022/04/06 11:58:28;;;;;;;;;;;10.00;99.90;;;;;;5072016;28;19932;-76
2022/04/06 12:01:00;;;;;;;;;;;10.10;99.90;;;;;;5072072;28;19931;-76
2022/04/06 12:03:30;;;;;;;;;;;10.30;99.90;;;;;;5090176;28;19924;-76
2022/04/06 12:05:55;;;;;;;;;;;10.50;99.90;;;;;;5078230;28;19924;-76
2022/04/06 12:08:22;;;;;;;;;;;10.70;99.90;;;;;;5108780;28;20390;-75
2022/04/06 12:10:51;;;;;;;;;;;10.80;99.90;;;;;;5109736;28;21545;-75
2022/04/06 12:13:17;;;;;;;;;;;11.00;99.90;;;;;;5110673;28;19924;-75
2022/04/06 12:15:43;;;;;;;;;;;11.10;99.90;;;;;;5109417;28;20340;-76
2022/04/06 12:18:09;;;;;;;;;;;11.20;99.90;;;;;;5109007;28;20397;-76
2022/04/06 12:20:35;;;;;;;;;;;11.20;99.90;;;;;;5108366;28;19935;-76
2022/04/06 12:23:00;;;;;;;;;;;11.20;99.90;;;;;;5109385;28;19928;-77
2022/04/06 12:25:27;;;;;;;;;;;11.20;99.90;;;;;;5109115;28;19924;-77
2022/04/06 12:28:07;;;;;;;;;;;11.20;99.90;;;;;;5108543;28;19934;-76
2022/04/06 12:30:33;;;;;;;;;;;11.30;99.90;;;;;;5110184;28;19923;-76
2022/04/06 12:32:59;;;;;;;;;;;11.50;99.90;;;;;;5108886;28;19928;-76
2022/04/06 12:35:24;;;;;;;;;;;11.50;99.90;;;;;;5109234;28;19981;-76
2022/04/06 12:37:50;;;;;;;;;;;11.60;99.90;;;;;;5110168;28;19924;-76
2022/04/06 12:40:20;;;;;;;;;;;11.60;99.90;;;;;;5109069;28;19924;-76
2022/04/06 12:42:46;;;;;;;;;;;11.50;99.90;;;;;;5109061;28;19977;-76
2022/04/06 12:45:13;;;;;;;;;;;11.50;99.90;;;;;;5109479;28;19924;-76
2022/04/06 12:47:38;;;;;;;;;;;11.40;99.90;;;;;;5110013;28;20090;-76
2022/04/06 12:50:15;;;;;;;;;;;11.40;99.90;;;;;;5109678;28;20032;-76
2022/04/06 12:52:40;;;;;;;;;;;11.40;99.90;;;;;;5109734;28;20405;-76
2022/04/06 12:55:07;;;;;;;;;;;11.40;99.90;;;;;;5109830;28;19924;-76
2022/04/06 12:57:37;;;;;;;;;;;11.40;99.90;;;;;;5109535;28;19973;-76
2022/04/06 13:00:07;;;;;;;;;;;11.50;99.90;;;;;;5091497;28;20010;-76
2022/04/06 13:02:35;;;;;;;;;;;11.50;99.90;;;;;;5109558;28;20023;-76
2022/04/06 13:05:11;;;;;;;;;;;11.70;99.90;;;;;;5109618;28;20702;-76
2022/04/06 13:07:37;;;;;;;;;;;11.70;99.90;;;;;;5109001;28;20409;-76
2022/04/06 13:10:04;;;;;;;;;;;11.70;99.90;;;;;;5109955;28;19974;-76
2022/04/06 13:12:31;;;;;;;;;;;11.80;99.90;;;;;;5109913;28;20290;-76
2022/04/06 13:14:57;;;;;;;;;;;11.80;99.90;;;;;;5108655;28;19924;-76
2022/04/06 13:17:23;;;;;;;;;;;11.90;99.90;;;;;;5109419;28;19923;-76
2022/04/06 13:19:49;;;;;;;;;;;11.80;99.90;;;;;;5108342;28;19923;-76
2022/04/06 13:22:15;;;;;;;;;;;11.80;99.90;;;;;;5108411;28;20010;-77
2022/04/06 13:24:41;;;;;;;;;;;11.80;99.90;;;;;;5108117;28;19928;-76
2022/04/06 13:27:06;;;;;;;;;;;11.80;99.90;;;;;;5108737;28;20882;-76
2022/04/06 13:29:32;;;;;;;;;;;11.80;99.90;;;;;;5109480;28;20301;-76
2022/04/06 13:31:58;;;;;;;;;;;11.80;99.90;;;;;;5109584;28;20298;-76
2022/04/06 13:34:24;;;;;;;;;;;11.80;99.90;;;;;;5108329;28;19935;-76
2022/04/06 13:36:49;;;;;;;;;;;11.70;99.90;;;;;;5109633;28;20267;-76
2022/04/06 13:39:15;;;;;;;;;;;11.80;99.90;;;;;;5109582;28;20056;-76
2022/04/06 13:41:41;;;;;;;;;;;11.80;99.90;;;;;;5091134;28;20378;-76
2022/04/06 13:44:07;;;;;;;;;;;11.80;99.90;;;;;;5109669;28;19928;-76
2022/04/06 13:46:32;;;;;;;;;;;11.80;99.90;;;;;;5108334;28;19928;-76
2022/04/06 13:48:58;;;;;;;;;;;11.80;99.90;;;;;;5108033;28;20034;-76
2022/04/06 13:51:24;;;;;;;;;;;11.90;99.90;;;;;;5109233;28;19924;-76
2022/04/06 13:53:49;;;;;;;;;;;11.90;99.90;;;;;;5109246;28;19935;-77
2022/04/06 13:56:15;;;;;;;;;;;11.90;99.90;;;;;;5111191;28;19981;-77
2022/04/06 13:58:41;;;;;;;;;;;12.10;99.90;;;;;;5111610;28;19976;-76
2022/04/06 14:01:06;;;;;;;;;;;12.10;99.90;;;;;;5113058;28;19931;-76
2022/04/06 14:03:32;;;;;;;;;;;12.20;99.90;;;;;;5112850;28;20335;-76
2022/04/06 14:05:57;;;;;;;;;;;12.30;99.90;;;;;;5111331;28;19924;-76
2022/04/06 14:08:23;;;;;;;;;;;12.40;99.90;;;;;;5111660;28;19924;-76
2022/04/06 14:10:50;;;;;;;;;;;12.30;99.90;;;;;;5111829;28;19923;-76
2022/04/06 14:13:16;;;;;;;;;;;12.30;99.90;;;;;;5112222;28;19972;-77
2022/04/06 14:15:44;;;;;;;;;;;12.20;99.90;;;;;;5111126;28;20324;-77
2022/04/06 14:18:10;;;;;;;;;;;12.20;99.90;;;;;;5113058;28;19923;-76
2022/04/06 14:20:35;;;;;;;;;;;12.10;99.90;;;;;;5112373;28;20022;-77
2022/04/06 14:23:01;;;;;;;;;;;12.10;99.90;;;;;;5112711;28;19931;-77
2022/04/06 14:25:26;;;;;;;;;;;12.00;99.90;;;;;;5112705;28;19988;-76
2022/04/06 14:27:52;;;;;;;;;;;11.90;99.90;;;;;;5111901;28;19931;-76
2022/04/06 14:30:19;;;;;;;;;;;11.90;99.90;;;;;;5112160;28;19924;-77
2022/04/06 14:32:45;;;;;;;;;;;11.90;99.90;;;;;;5112384;28;19990;-76
2022/04/06 14:35:12;;;;;;;;;;;11.80;99.90;;;;;;5112424;28;19928;-76
2022/04/06 14:37:40;;;;;;;;;;;11.80;99.90;;;;;;5112034;28;19924;-76